Weather at Winchester Regional Airport

Public forecast

Using degrees Fahrenheit for public forecast. Weather courtesy of forecast.io.

Current aviation weather report (METAR) for Winchester Regional Airport

Retrieved 2020/09/25 15:35 UTC (8 minutes ago):

KOKV 251535Z AUTO 00000KT 10SM CLR 17/14 A3010 RMK AO2

Closest aviation forecast (TAF) to Winchester Regional Airport

Closest forecast is Eastern WV Regional Airport/Shepherd Field, 17.2 nm (31.9 km) NNE. Retrieved 2020/09/25 12:46 UTC (3 hours ago):

TAF KMRB 251143Z 2512/2612 00000KT 5SM BR BKN002 TEMPO 2512/2513 2SM BR BKN001 FM251300 VRB03KT P6SM BKN250 FM251900 15006KT P6SM SCT060 BKN200 FM260300 15004KT P6SM BKN025 FM260600 VRB03KT 3SM BR BKN010